Terminal Aerodrome Forecast
Issued by NWS

Home | Current Version | Previous Version | Graphics & Text | Print | Product List | Glossary On
Versions: 1 2 3 4 5 6 7 8 9 10 11 12 13 14 15 16 17
000
FTUS43 KICT 312341
TAFCNU
TAF
KCNU 312341Z 0100/0124 07008KT P6SM SCT020 BKN035
     FM010900 08005KT 4SM BR SCT009 BKN012
     FM011500 08006KT P6SM BKN025
     FM012000 10006KT P6SM BKN035=

USA.gov is the U.S. government's official web portal to all federal, state and local government web resources and services.